Time;durP1;ratioP1;P1;durP2;ratioP2;P2;SDS_P1;SDS_P2;PMS_P1;PMS_P2;Temp;Humidity;BMP_temperature;BMP_pressure;BME280_temperature;BME280_humidity;BME280_pressure;Samples;Min_cycle;Max_cycle;Signal;HPM_P1;HPM_P2
2021/12/31 00:00:58;;;;;;;;;;;;;;;20.70;35.89;101508.30;99509;1362;60481;-83
2021/12/31 00:03:43;;;;;;;;;;;;;;;20.70;35.87;101505.65;99552;1361;72591;-83
2021/12/31 00:06:19;;;;;;;;;;;;;;;20.70;35.96;101509.05;99508;1367;74188;-83
2021/12/31 00:08:45;;;;;;;;;;;;;;;20.70;35.81;101509.94;99858;1355;61285;-83
2021/12/31 00:11:30;;;;;;;;;;;;;;;20.70;35.96;101506.35;100060;1360;60430;-83
2021/12/31 00:14:19;;;;;;;;;;;;;;;;;;;;;
2021/12/31 00:17:05;;;;;;;;;;;;;;;20.70;35.95;101513.52;100051;1355;73881;-83
2021/12/31 00:19:42;;;;;;;;;;;;;;;;;;;;;
2021/12/31 00:25:21;;;;;;;;;;;;;;;20.70;36.15;101520.14;100539;1348;71532;-82
2021/12/31 00:28:17;;;;;;;;;;;;;;;20.70;36.11;101523.69;100495;1349;75066;-83
2021/12/31 00:30:51;;;;;;;;;;;;;;;20.70;36.04;101518.55;100681;1350;60868;-83
2021/12/31 00:33:26;;;;;;;;;;;;;;;20.70;36.03;101515.50;100668;1350;60523;-83
2021/12/31 00:36:01;;;;;;;;;;;;;;;20.70;35.91;101521.05;101015;1347;72649;-83
2021/12/31 00:38:52;;;;;;;;;;;;;;;;;;;;;
2021/12/31 00:41:24;;;;;;;;;;;;;;;20.70;36.02;101521.38;101458;1347;61243;-83
2021/12/31 00:43:59;;;;;;;;;;;;;;;20.69;36.04;101524.65;101323;1344;60703;-83
2021/12/31 00:46:32;;;;;;;;;;;;;;;20.70;36.01;101519.10;101388;1341;72887;-83
2021/12/31 00:49:05;;;;;;;;;;;;;;;20.70;36.06;101519.98;101423;1344;74017;-83
2021/12/31 00:51:33;;;;;;;;;;;;;;;20.70;35.96;101520.52;101365;1347;63454;-83
2021/12/31 00:54:20;;;;;;;;;;;;;;;20.70;36.08;101516.55;101411;1341;60520;-83
2021/12/31 00:56:54;;;;;;;;;;;;;;;20.70;36.18;101506.35;101387;1347;72635;-83
2021/12/31 00:59:49;;;;;;;;;;;;;;;20.70;36.11;101505.31;101338;1341;72809;-83
2021/12/31 01:02:26;;;;;;;;;;;;;;;20.70;36.09;101513.20;101409;1348;60480;-83
2021/12/31 01:04:57;;;;;;;;;;;;;;;20.69;36.18;101527.88;101408;1341;60335;-82
2021/12/31 01:07:35;;;;;;;;;;;;;;;;;;;;;
2021/12/31 01:10:15;;;;;;;;;;;;;;;20.70;36.18;101516.41;101358;1341;74278;-82
2021/12/31 01:12:50;;;;;;;;;;;;;;;20.69;36.15;101516.98;101448;1341;60490;-81
2021/12/31 01:15:32;;;;;;;;;;;;;;;;;;;;;
2021/12/31 01:18:19;;;;;;;;;;;;;;;20.69;36.06;101506.97;101471;1344;72766;-82
2021/12/31 01:21:05;;;;;;;;;;;;;;;20.69;36.14;101514.64;101380;1341;74815;-82
2021/12/31 01:23:47;;;;;;;;;;;;;;;;;;;;;
2021/12/31 01:26:31;;;;;;;;;;;;;;;20.69;36.06;101516.44;101368;1341;61410;-82
2021/12/31 01:29:17;;;;;;;;;;;;;;;20.69;35.98;101523.95;101329;1344;73791;-82
2021/12/31 01:32:00;;;;;;;;;;;;;;;20.69;35.89;101524.86;101350;1349;75248;-82
2021/12/31 01:34:42;;;;;;;;;;;;;;;20.69;35.97;101514.66;101435;1344;61664;-83
2021/12/31 01:37:17;;;;;;;;;;;;;;;;;;;;;
2021/12/31 01:39:44;;;;;;;;;;;;;;;20.69;36.04;101502.49;101362;1341;72693;-83
2021/12/31 01:42:27;;;;;;;;;;;;;;;;;;;;;
2021/12/31 01:45:03;;;;;;;;;;;;;;;20.69;36.02;101500.73;101440;1344;60899;-82
2021/12/31 01:47:56;;;;;;;;;;;;;;;;;;;;;
2021/12/31 01:50:31;;;;;;;;;;;;;;;20.69;36.05;101521.45;101409;1347;71837;-82
2021/12/31 01:52:57;;;;;;;;;;;;;;;20.69;36.04;101526.27;101497;1344;73769;-82
2021/12/31 01:55:57;;;;;;;;;;;;;;;20.69;35.94;101525.57;101433;1344;60588;-81
2021/12/31 01:58:44;;;;;;;;;;;;;;;20.69;36.06;101522.86;101372;1345;60454;-82
2021/12/31 02:01:12;;;;;;;;;;;;;;;20.69;36.17;101513.75;101403;1344;72777;-81
2021/12/31 02:03:38;;;;;;;;;;;;;;;20.69;36.23;101511.77;101356;1344;74343;-82
2021/12/31 02:06:38;;;;;;;;;;;;;;;;;;;;;
2021/12/31 02:09:15;;;;;;;;;;;;;;;20.70;36.15;101497.63;100436;1353;60590;-82
2021/12/31 02:11:41;;;;;;;;;;;;;;;20.70;35.97;101499.95;100987;1353;72867;-82
2021/12/31 02:14:28;;;;;;;;;;;;;;;;;;;;;
2021/12/31 02:17:07;;;;;;;;;;;;;;;20.69;36.12;101492.99;100980;1347;60381;-83
2021/12/31 02:19:55;;;;;;;;;;;;;;;20.69;35.97;101487.43;101001;1347;61711;-82
2021/12/31 02:23:04;;;;;;;;;;;;;;;;;;;;;
2021/12/31 02:25:50;;;;;;;;;;;;;;;20.69;36.13;101491.39;100324;1354;74180;-82
2021/12/31 02:28:27;;;;;;;;;;;;;;;20.70;36.10;101505.45;100266;1361;61476;-82
2021/12/31 02:31:30;;;;;;;;;;;;;;;20.70;36.03;101513.15;100245;1354;60584;-82
2021/12/31 02:34:16;;;;;;;;;;;;;;;20.70;35.94;101507.59;100202;1357;72941;-82
2021/12/31 02:37:28;;;;;;;;;;;;;;;20.70;35.92;101509.94;100348;1354;75611;-82
2021/12/31 02:40:08;;;;;;;;;;;;;;;20.70;35.93;101519.61;100248;1357;60491;-82
2021/12/31 02:42:34;;;;;;;;;;;;;;;20.70;36.02;101527.81;100326;1354;60629;-82
2021/12/31 02:45:11;;;;;;;;;;;;;;;20.70;35.94;101526.75;100234;1354;59296;-82
2021/12/31 02:47:46;;;;;;;;;;;;;;;20.70;36.11;101526.80;100297;1353;74999;-82
2021/12/31 02:50:41;;;;;;;;;;;;;;;20.69;36.21;101528.07;100658;1357;60397;-81
2021/12/31 02:53:26;;;;;;;;;;;;;;;20.69;36.00;101530.77;100226;1356;60564;-82
2021/12/31 02:56:00;;;;;;;;;;;;;;;20.68;35.97;101534.16;100199;1360;73042;-83
2021/12/31 02:58:47;;;;;;;;;;;;;;;;;;;;;
2021/12/31 03:01:43;;;;;;;;;;;;;;;20.68;35.89;101518.98;100240;1353;60382;-84
2021/12/31 03:04:13;;;;;;;;;;;;;;;20.69;35.82;101526.81;100563;1350;60567;-83
2021/12/31 03:06:59;;;;;;;;;;;;;;;20.69;36.11;101531.48;100558;1356;73806;-82
2021/12/31 03:09:46;;;;;;;;;;;;;;;;;;;;;
2021/12/31 03:12:21;;;;;;;;;;;;;;;20.68;35.80;101535.07;100694;1350;60417;-81
2021/12/31 03:14:53;;;;;;;;;;;;;;;20.68;36.12;101543.48;100565;1350;61574;-81
2021/12/31 03:17:18;;;;;;;;;;;;;;;20.68;36.00;101547.06;100437;1350;74493;-82
2021/12/31 03:20:08;;;;;;;;;;;;;;;20.68;35.88;101549.92;100535;1356;74935;-82
2021/12/31 03:22:59;;;;;;;;;;;;;;;20.67;35.97;101554.79;100675;1349;60567;-82
2021/12/31 03:25:28;;;;;;;;;;;;;;;20.68;35.95;101545.64;100162;1361;60518;-82
2021/12/31 03:28:14;;;;;;;;;;;;;;;;;;;;;
2021/12/31 03:31:01;;;;;;;;;;;;;;;20.67;35.88;101529.38;100277;1350;74029;-82
2021/12/31 03:33:46;;;;;;;;;;;;;;;20.68;35.95;101520.05;100421;1356;60413;-82
2021/12/31 03:36:25;;;;;;;;;;;;;;;20.68;35.78;101506.81;100446;1350;61438;-81
2021/12/31 03:39:09;;;;;;;;;;;;;;;20.68;35.72;101503.08;100422;1355;73742;-81
2021/12/31 03:42:14;;;;;;;;;;;;;;;20.68;35.88;101502.89;100521;1351;74216;-83
2021/12/31 03:44:50;;;;;;;;;;;;;;;20.68;36.15;101510.40;100421;1349;61826;-83
2021/12/31 03:47:30;;;;;;;;;;;;;;;20.68;36.10;101515.23;100327;1357;61945;-83
2021/12/31 03:49:56;;;;;;;;;;;;;;;20.68;35.95;101514.33;100446;1349;73050;-83
2021/12/31 03:52:22;;;;;;;;;;;;;;;20.68;35.87;101516.85;100320;1358;60646;-81
2021/12/31 03:55:11;;;;;;;;;;;;;;;20.68;36.10;101519.16;100404;1349;60424;-82
2021/12/31 03:58:07;;;;;;;;;;;;;;;20.68;35.90;101519.33;100427;1356;60553;-82
2021/12/31 04:00:34;;;;;;;;;;;;;;;20.68;35.74;101517.94;100392;1349;73896;-82
2021/12/31 04:03:06;;;;;;;;;;;;;;;20.67;35.86;101511.52;101015;1348;73986;-81
2021/12/31 04:05:41;;;;;;;;;;;;;;;20.67;36.11;101513.30;101374;1344;61543;-82
2021/12/31 04:08:27;;;;;;;;;;;;;;;20.68;35.93;101510.05;101441;1348;60460;-82
2021/12/31 04:10:53;;;;;;;;;;;;;;;20.67;35.93;101505.06;101439;1348;72839;-81
2021/12/31 04:13:28;;;;;;;;;;;;;;;20.67;36.06;101504.89;101443;1341;60440;-82
2021/12/31 04:16:01;;;;;;;;;;;;;;;20.67;36.12;101501.31;101471;1342;60317;-81
2021/12/31 04:18:29;;;;;;;;;;;;;;;20.67;35.84;101500.60;101399;1341;61555;-82
2021/12/31 04:21:17;;;;;;;;;;;;;;;20.67;35.74;101510.98;101386;1344;72730;-82
2021/12/31 04:24:13;;;;;;;;;;;;;;;20.67;35.88;101516.90;101441;1344;73852;-82
2021/12/31 04:26:59;;;;;;;;;;;;;;;20.67;36.10;101520.12;101379;1344;60450;-82
2021/12/31 04:29:48;;;;;;;;;;;;;;;20.66;35.91;101508.87;101401;1344;60463;-82
2021/12/31 04:32:14;;;;;;;;;;;;;;;20.67;35.92;101495.09;101389;1341;72823;-82
2021/12/31 04:34:42;;;;;;;;;;;;;;;20.66;35.98;101495.98;101410;1342;60459;-83
2021/12/31 04:37:34;;;;;;;;;;;;;;;20.67;35.93;101499.55;101383;1348;61393;-82
2021/12/31 04:40:12;;;;;;;;;;;;;;;20.67;35.85;101493.28;101404;1350;60342;-82
2021/12/31 04:42:50;;;;;;;;;;;;;;;20.67;35.99;101494.02;101420;1347;73718;-82
2021/12/31 04:45:25;;;;;;;;;;;;;;;20.66;35.95;101488.14;101465;1341;74852;-83
2021/12/31 04:47:51;;;;;;;;;;;;;;;20.66;35.92;101487.45;101499;1344;60447;-83
2021/12/31 04:50:46;;;;;;;;;;;;;;;20.67;36.02;101487.56;101437;1348;61340;-82
2021/12/31 04:53:33;;;;;;;;;;;;;;;20.67;36.06;101487.91;101365;1342;72784;-83
2021/12/31 04:56:06;;;;;;;;;;;;;;;20.67;35.87;101492.22;101384;1341;73678;-83
2021/12/31 04:58:32;;;;;;;;;;;;;;;20.67;35.99;101491.16;101330;1348;60380;-82
2021/12/31 05:01:49;;;;;;;;;;;;;;;20.67;35.93;101495.78;101390;1341;60466;-82
2021/12/31 05:04:14;;;;;;;;;;;;;;;20.67;35.89;101495.96;101412;1348;73908;-82
2021/12/31 05:07:00;;;;;;;;;;;;;;;20.67;35.99;101495.08;101385;1348;72759;-83
2021/12/31 05:09:25;;;;;;;;;;;;;;;20.67;35.82;101496.66;101428;1342;60476;-84
2021/12/31 05:11:51;;;;;;;;;;;;;;;20.67;35.94;101499.19;101362;1349;60552;-83
2021/12/31 05:14:37;;;;;;;;;;;;;;;20.67;35.98;101504.89;101330;1344;60479;-83
2021/12/31 05:17:20;;;;;;;;;;;;;;;20.66;35.84;101514.06;101359;1347;74065;-82
2021/12/31 05:19:57;;;;;;;;;;;;;;;;;;;;;
2021/12/31 05:22:39;;;;;;;;;;;;;;;;;;;;;
2021/12/31 05:25:05;;;;;;;;;;;;;;;20.67;36.03;101526.01;101424;1342;73784;-82
2021/12/31 05:28:04;;;;;;;;;;;;;;;20.67;35.98;101529.75;101383;1341;73201;-83
2021/12/31 05:30:36;;;;;;;;;;;;;;;20.68;35.82;101537.41;101379;1350;60971;-83
2021/12/31 05:33:26;;;;;;;;;;;;;;;20.67;35.78;101546.56;101382;1344;61195;-81
2021/12/31 05:35:59;;;;;;;;;;;;;;;20.68;36.03;101538.66;101416;1341;73894;-82
2021/12/31 05:39:06;;;;;;;;;;;;;;;20.68;35.95;101530.79;101297;1348;72686;-82
2021/12/31 05:41:58;;;;;;;;;;;;;;;20.68;35.93;101540.46;101455;1345;60537;-82
2021/12/31 05:44:34;;;;;;;;;;;;;;;20.68;35.93;101541.69;101444;1347;61158;-82
2021/12/31 05:47:00;;;;;;;;;;;;;;;20.68;36.04;101541.52;101226;1344;71536;-82
2021/12/31 05:50:17;;;;;;;;;;;;;;;;;;;;;
2021/12/31 05:53:03;;;;;;;;;;;;;;;20.68;36.02;101551.70;101383;1344;61354;-82
2021/12/31 05:55:29;;;;;;;;;;;;;;;20.69;35.99;101557.05;101377;1342;60478;-82
2021/12/31 05:58:10;;;;;;;;;;;;;;;;;;;;;
2021/12/31 06:00:56;;;;;;;;;;;;;;;20.68;35.81;101557.96;101363;1341;74745;-82
2021/12/31 06:04:02;;;;;;;;;;;;;;;20.68;35.98;101562.80;101033;1345;60606;-82
2021/12/31 06:06:37;;;;;;;;;;;;;;;;;;;;;
2021/12/31 06:09:34;;;;;;;;;;;;;;;20.68;35.99;101576.76;100861;1352;73625;-82
2021/12/31 06:11:59;;;;;;;;;;;;;;;20.68;36.01;101575.85;101006;1352;74013;-79
2021/12/31 06:14:46;;;;;;;;;;;;;;;20.69;35.99;101578.70;100740;1353;60854;-82
2021/12/31 06:17:12;;;;;;;;;;;;;;;20.68;36.08;101578.17;100767;1347;60581;-82
2021/12/31 06:19:59;;;;;;;;;;;;;;;;;;;;;
2021/12/31 06:22:32;;;;;;;;;;;;;;;20.68;35.93;101576.95;100768;1347;74482;-82
2021/12/31 06:25:38;;;;;;;;;;;;;;;20.68;35.77;101574.44;100830;1351;60367;-82
2021/12/31 06:28:04;;;;;;;;;;;;;;;20.68;36.00;101582.84;100999;1348;60473;-82
2021/12/31 06:31:00;;;;;;;;;;;;;;;20.68;35.95;101578.02;100771;1348;71827;-82
2021/12/31 06:33:56;;;;;;;;;;;;;;;;;;;;;
2021/12/31 06:36:45;;;;;;;;;;;;;;;20.68;36.04;101567.98;100287;1354;61343;-82
2021/12/31 06:39:31;;;;;;;;;;;;;;;20.69;35.99;101555.42;100257;1354;62731;-82
2021/12/31 06:42:16;;;;;;;;;;;;;;;20.70;35.88;101558.80;100607;1351;73341;-82
2021/12/31 06:45:20;;;;;;;;;;;;;;;20.69;35.92;101558.28;100141;1354;72753;-82
2021/12/31 06:48:51;;;;;;;;;;;;;;;20.69;36.01;101556.30;100172;1357;60380;-81
2021/12/31 06:51:00;;;;;;;;;;;;;;;20.69;35.90;101562.05;99855;1359;60694;-81
2021/12/31 06:53:46;;;;;;;;;;;;;;;20.70;35.99;101570.24;99730;1361;74417;-82
2021/12/31 06:56:17;;;;;;;;;;;;;;;20.70;35.84;101572.56;99733;1360;61115;-82
2021/12/31 06:59:24;;;;;;;;;;;;;;;20.70;35.78;101576.33;99842;1359;60491;-82
2021/12/31 07:01:58;;;;;;;;;;;;;;;20.70;35.85;101575.94;99877;1363;60517;-81
2021/12/31 07:04:43;;;;;;;;;;;;;;;20.70;35.87;101572.35;99743;1362;73856;-82
2021/12/31 07:07:12;;;;;;;;;;;;;;;20.70;35.65;101572.34;99900;1364;74064;-84
2021/12/31 07:09:38;;;;;;;;;;;;;;;20.71;35.90;101569.11;99734;1365;61440;-83
2021/12/31 07:12:11;;;;;;;;;;;;;;;20.70;35.90;101573.23;99717;1361;60504;-82
2021/12/31 07:14:37;;;;;;;;;;;;;;;20.70;35.88;101564.67;100107;1353;72939;-82
2021/12/31 07:17:43;;;;;;;;;;;;;;;20.71;35.89;101562.67;100146;1354;72823;-82
2021/12/31 07:20:29;;;;;;;;;;;;;;;20.71;35.97;101555.86;100241;1353;61935;-82
2021/12/31 07:23:17;;;;;;;;;;;;;;;20.71;35.90;101555.87;100619;1347;60434;-82
2021/12/31 07:25:51;;;;;;;;;;;;;;;20.71;35.83;101550.48;100780;1354;74285;-82
2021/12/31 07:28:39;;;;;;;;;;;;;;;20.71;35.76;101542.09;101090;1344;72763;-81
2021/12/31 07:31:14;;;;;;;;;;;;;;;20.71;35.80;101538.84;101376;1344;60386;-82
2021/12/31 07:34:03;;;;;;;;;;;;;;;20.71;36.01;101529.38;101427;1347;60949;-82
2021/12/31 07:36:36;;;;;;;;;;;;;;;20.72;35.89;101535.08;101383;1343;73718;-83
2021/12/31 07:39:24;;;;;;;;;;;;;;;20.71;35.80;101539.55;101383;1342;74348;-82
2021/12/31 07:42:15;;;;;;;;;;;;;;;20.72;35.82;101548.11;101393;1344;61353;-82
2021/12/31 07:45:01;;;;;;;;;;;;;;;20.72;36.01;101549.01;101401;1341;60429;-82
2021/12/31 07:47:30;;;;;;;;;;;;;;;20.72;35.90;101554.18;101390;1344;72828;-82
2021/12/31 07:50:15;;;;;;;;;;;;;;;20.72;35.85;101556.86;101369;1349;74367;-82
2021/12/31 07:52:59;;;;;;;;;;;;;;;20.73;35.84;101550.39;101370;1347;60517;-82
2021/12/31 07:55:28;;;;;;;;;;;;;;;20.73;35.84;101551.80;101359;1344;61367;-82
2021/12/31 07:58:14;;;;;;;;;;;;;;;20.73;35.84;101548.42;101368;1344;73756;-82
2021/12/31 08:00:51;;;;;;;;;;;;;;;20.74;36.04;101545.86;101384;1342;74879;-82
2021/12/31 08:03:25;;;;;;;;;;;;;;;20.73;35.85;101545.19;101369;1345;60589;-81
2021/12/31 08:06:03;;;;;;;;;;;;;;;;;;;;;
2021/12/31 08:08:36;;;;;;;;;;;;;;;20.73;35.81;101534.09;101332;1344;72547;-83
2021/12/31 08:11:22;;;;;;;;;;;;;;;20.74;35.79;101537.63;101360;1345;74167;-82
2021/12/31 08:14:10;;;;;;;;;;;;;;;20.74;35.82;101541.56;101388;1345;60505;-82
2021/12/31 08:16:48;;;;;;;;;;;;;;;;;;;;;
2021/12/31 08:19:21;;;;;;;;;;;;;;;20.74;35.82;101539.23;101437;1348;73621;-81
2021/12/31 08:21:58;;;;;;;;;;;;;;;;;;;;;
2021/12/31 08:24:24;;;;;;;;;;;;;;;20.74;35.71;101529.38;101106;1347;61789;-81
2021/12/31 08:27:10;;;;;;;;;;;;;;;20.73;35.73;101530.31;101685;1341;59268;-81
2021/12/31 08:29:51;;;;;;;;;;;;;;;20.73;35.86;101526.21;101429;1341;72790;-82
2021/12/31 08:32:25;;;;;;;;;;;;;;;20.73;35.79;101528.90;101308;1344;74829;-82
2021/12/31 08:35:27;;;;;;;;;;;;;;;20.73;35.99;101527.66;101352;1349;60419;-81
2021/12/31 08:37:56;;;;;;;;;;;;;;;20.73;35.93;101524.44;101357;1344;60706;-82
2021/12/31 08:41:00;;;;;;;;;;;;;;;20.72;36.01;101519.46;100645;1350;71551;-82
2021/12/31 08:43:46;;;;;;;;;;;;;;;20.72;35.83;101515.02;100448;1356;72680;-82
2021/12/31 08:46:32;;;;;;;;;;;;;;;20.72;35.82;101518.21;100269;1354;60495;-83
2021/12/31 08:49:19;;;;;;;;;;;;;;;20.72;35.95;101522.00;100326;1354;60641;-83
2021/12/31 08:52:04;;;;;;;;;;;;;;;20.72;35.78;101523.25;99991;1360;73067;-83
2021/12/31 08:55:15;;;;;;;;;;;;;;;;;;;;;
2021/12/31 08:58:19;;;;;;;;;;;;;;;;;;;;;
2021/12/31 09:00:59;;;;;;;;;;;;;;;;;;;;;
2021/12/31 09:03:33;;;;;;;;;;;;;;;20.72;35.77;101514.48;99955;1362;73297;-80
2021/12/31 09:06:23;;;;;;;;;;;;;;;;;;;;;
2021/12/31 09:09:12;;;;;;;;;;;;;;;;;;;;;
2021/12/31 09:11:38;;;;;;;;;;;;;;;20.72;36.01;101518.95;99984;1365;60477;-82
2021/12/31 09:14:23;;;;;;;;;;;;;;;;;;;;;
2021/12/31 09:16:52;;;;;;;;;;;;;;;20.72;35.89;101531.13;99767;1360;75092;-82
2021/12/31 09:19:59;;;;;;;;;;;;;;;20.72;35.87;101522.36;100089;1356;60776;-82
2021/12/31 09:22:48;;;;;;;;;;;;;;;20.72;35.93;101516.28;100130;1357;60302;-82
2021/12/31 09:25:13;;;;;;;;;;;;;;;20.71;35.83;101510.23;100164;1356;72766;-82
2021/12/31 09:27:44;;;;;;;;;;;;;;;20.71;36.01;101495.38;100199;1358;75249;-82
2021/12/31 09:31:00;;;;;;;;;;;;;;;20.72;35.93;101492.48;100604;1350;60520;-82
2021/12/31 09:33:47;;;;;;;;;;;;;;;20.72;36.22;101486.40;100240;1354;61272;-82
2021/12/31 09:36:13;;;;;;;;;;;;;;;20.72;35.95;101474.96;100232;1353;73697;-82
2021/12/31 09:39:01;;;;;;;;;;;;;;;;;;;;;
2021/12/31 09:42:07;;;;;;;;;;;;;;;;;;;;;
2021/12/31 09:45:06;;;;;;;;;;;;;;;;;;;;;
2021/12/31 09:48:01;;;;;;;;;;;;;;;20.72;36.01;101451.84;100174;1357;71652;-82
2021/12/31 09:51:26;;;;;;;;;;;;;;;20.74;36.15;101454.81;100133;1362;74137;-82
2021/12/31 09:53:59;;;;;;;;;;;;;;;20.74;35.98;101446.39;100211;1361;60445;-82
2021/12/31 09:56:45;;;;;;;;;;;;;;;20.74;36.06;101439.05;100254;1354;60492;-82
2021/12/31 09:59:29;;;;;;;;;;;;;;;20.74;36.05;101441.71;100232;1354;73294;-83
2021/12/31 10:01:56;;;;;;;;;;;;;;;20.75;36.02;101449.89;99884;1357;74121;-82
2021/12/31 10:04:36;;;;;;;;;;;;;;;20.75;35.93;101448.11;100199;1361;60501;-82
2021/12/31 10:07:21;;;;;;;;;;;;;;;20.76;35.99;101440.92;100218;1357;60354;-82
2021/12/31 10:10:24;;;;;;;;;;;;;;;20.75;36.13;101428.09;100211;1356;73607;-82
2021/12/31 10:12:59;;;;;;;;;;;;;;;20.75;35.98;101418.62;100788;1347;74218;-83
2021/12/31 10:18:39;;;;;;;;;;;;;;;20.74;36.02;101412.55;99739;1359;61480;-82
2021/12/31 10:21:43;;;;;;;;;;;;;;;;;;;;;
2021/12/31 10:24:47;;;;;;;;;;;;;;;20.74;36.23;101414.02;99689;1360;74242;-82
2021/12/31 10:27:30;;;;;;;;;;;;;;;20.74;36.19;101413.27;99668;1360;60595;-83
2021/12/31 10:30:00;;;;;;;;;;;;;;;20.74;36.11;101402.73;99423;1367;60377;-82
2021/12/31 10:33:20;;;;;;;;;;;;;;;;;;;;;
2021/12/31 10:35:48;;;;;;;;;;;;;;;20.74;36.08;101388.07;99043;1369;74072;-82
2021/12/31 10:38:14;;;;;;;;;;;;;;;20.74;36.01;101384.31;99065;1369;61235;-82
2021/12/31 10:41:09;;;;;;;;;;;;;;;20.74;36.12;101380.18;99088;1369;60537;-83
2021/12/31 10:43:40;;;;;;;;;;;;;;;20.74;35.93;101383.41;99071;1372;72920;-82
2021/12/31 10:46:19;;;;;;;;;;;;;;;20.74;36.05;101388.09;99067;1370;74061;-83
2021/12/31 10:49:06;;;;;;;;;;;;;;;;;;;;;
2021/12/31 10:51:48;;;;;;;;;;;;;;;20.74;35.99;101386.84;99069;1374;60715;-83
2021/12/31 10:55:16;;;;;;;;;;;;;;;20.73;36.09;101378.98;99090;1372;72941;-82
2021/12/31 10:57:21;;;;;;;;;;;;;;;20.73;35.94;101377.03;99571;1367;75010;-83
2021/12/31 10:59:46;;;;;;;;;;;;;;;20.73;35.84;101377.02;99637;1365;60638;-83
2021/12/31 11:02:27;;;;;;;;;;;;;;;20.73;36.00;101382.42;99663;1365;59751;-83
2021/12/31 11:05:04;;;;;;;;;;;;;;;20.73;35.95;101383.87;99719;1366;72670;-82
2021/12/31 11:07:44;;;;;;;;;;;;;;;;;;;;;
2021/12/31 11:10:46;;;;;;;;;;;;;;;20.73;36.05;101370.95;99667;1367;59384;-82
2021/12/31 11:13:39;;;;;;;;;;;;;;;20.73;36.14;101370.94;99898;1357;60370;-82
2021/12/31 11:16:09;;;;;;;;;;;;;;;20.74;36.14;101379.88;100067;1362;73861;-82
2021/12/31 11:18:41;;;;;;;;;;;;;;;20.74;36.09;101372.34;100182;1358;75021;-82
2021/12/31 11:21:16;;;;;;;;;;;;;;;20.74;36.18;101368.22;100204;1354;60376;-82
2021/12/31 11:24:31;;;;;;;;;;;;;;;;;;;;;
2021/12/31 11:27:18;;;;;;;;;;;;;;;20.74;36.05;101362.69;100189;1353;73268;-82
2021/12/31 11:29:43;;;;;;;;;;;;;;;20.74;36.07;101356.05;100189;1354;72844;-82
2021/12/31 11:32:14;;;;;;;;;;;;;;;20.74;36.07;101357.51;100136;1358;60593;-81
2021/12/31 11:35:03;;;;;;;;;;;;;;;20.74;36.02;101351.07;100205;1361;60444;-82
2021/12/31 11:38:24;;;;;;;;;;;;;;;20.74;36.04;101350.86;100135;1355;72881;-82
2021/12/31 11:40:59;;;;;;;;;;;;;;;20.74;36.14;101345.35;100285;1356;75279;-82
2021/12/31 11:43:59;;;;;;;;;;;;;;;20.74;36.11;101346.24;100607;1350;60628;-82
2021/12/31 11:46:52;;;;;;;;;;;;;;;;;;;;;
2021/12/31 11:49:48;;;;;;;;;;;;;;;20.74;36.00;101339.25;101391;1348;73753;-82
2021/12/31 11:52:54;;;;;;;;;;;;;;;20.74;35.93;101337.42;101350;1350;74741;-82
2021/12/31 11:55:29;;;;;;;;;;;;;;;;;;;;;
2021/12/31 11:58:24;;;;;;;;;;;;;;;20.75;36.24;101324.36;101366;1347;61427;-82
2021/12/31 12:01:00;;;;;;;;;;;;;;;;;;;;;
2021/12/31 12:03:29;;;;;;;;;;;;;;;20.75;36.37;101323.61;101417;1342;75774;-82
2021/12/31 12:05:54;;;;;;;;;;;;;;;20.75;35.94;101323.62;101357;1342;61279;-82
2021/12/31 12:08:32;;;;;;;;;;;;;;;20.75;36.09;101330.77;101355;1348;61266;-81
2021/12/31 12:11:18;;;;;;;;;;;;;;;20.75;35.95;101331.13;101368;1344;61234;-82
2021/12/31 12:13:43;;;;;;;;;;;;;;;20.75;36.19;101328.81;101370;1344;74633;-82
2021/12/31 12:16:19;;;;;;;;;;;;;;;20.75;36.01;101326.15;101355;1348;61212;-82
2021/12/31 12:19:14;;;;;;;;;;;;;;;20.75;36.29;101322.73;101373;1349;61305;-82
2021/12/31 12:21:59;;;;;;;;;;;;;;;20.74;36.00;101316.67;101350;1344;72040;-82
2021/12/31 12:24:54;;;;;;;;;;;;;;;20.74;36.16;101318.83;101350;1344;73544;-82
2021/12/31 12:27:47;;;;;;;;;;;;;;;20.75;36.05;101314.70;101372;1345;61122;-82
2021/12/31 12:30:13;;;;;;;;;;;;;;;20.75;36.33;101310.59;101359;1349;61304;-82
2021/12/31 12:35:41;;;;;;;;;;;;;;;20.74;36.28;101318.11;101329;1346;75825;-82
2021/12/31 12:38:30;;;;;;;;;;;;;;;20.75;36.27;101322.39;101441;1342;61451;-82
2021/12/31 12:41:27;;;;;;;;;;;;;;;;;;;;;
2021/12/31 12:43:57;;;;;;;;;;;;;;;20.75;36.25;101320.07;101380;1344;72945;-82
2021/12/31 12:46:24;;;;;;;;;;;;;;;20.75;36.27;101322.73;101269;1346;62154;-81
2021/12/31 12:48:58;;;;;;;;;;;;;;;20.75;36.21;101322.73;101361;1344;61118;-81
2021/12/31 12:52:07;;;;;;;;;;;;;;;20.75;36.10;101323.78;101337;1350;61011;-82
2021/12/31 12:54:32;;;;;;;;;;;;;;;20.74;36.19;101324.36;100976;1348;73841;-81
2021/12/31 12:57:26;;;;;;;;;;;;;;;;;;;;;
2021/12/31 13:00:11;;;;;;;;;;;;;;;20.75;36.21;101335.04;100818;1348;61211;-81
2021/12/31 13:02:46;;;;;;;;;;;;;;;20.75;36.15;101334.15;100615;1355;61408;-82
2021/12/31 13:05:31;;;;;;;;;;;;;;;20.76;36.21;101331.09;100949;1349;72935;-82
2021/12/31 13:08:05;;;;;;;;;;;;;;;20.76;36.33;101330.19;100226;1354;75909;-81
2021/12/31 13:10:39;;;;;;;;;;;;;;;20.76;36.50;101321.04;100195;1354;61369;-82
2021/12/31 13:13:22;;;;;;;;;;;;;;;20.76;36.23;101319.95;100189;1357;61368;-82
2021/12/31 13:15:59;;;;;;;;;;;;;;;20.77;36.41;101320.30;100236;1353;72839;-82
2021/12/31 13:19:08;;;;;;;;;;;;;;;20.77;36.35;101315.61;100237;1354;73542;-82
2021/12/31 13:21:35;;;;;;;;;;;;;;;20.78;36.37;101320.96;100207;1354;61298;-83
2021/12/31 13:24:46;;;;;;;;;;;;;;;20.78;36.31;101319.51;100246;1354;61291;-83
2021/12/31 13:27:22;;;;;;;;;;;;;;;20.79;36.35;101315.70;100227;1354;73403;-83
2021/12/31 13:30:16;;;;;;;;;;;;;;;20.79;36.49;101322.52;100205;1354;76358;-83
2021/12/31 13:32:53;;;;;;;;;;;;;;;;;;;;;
2021/12/31 13:35:59;;;;;;;;;;;;;;;20.80;36.31;101308.64;100429;1357;62110;-83
2021/12/31 13:38:33;;;;;;;;;;;;;;;20.80;36.24;101309.52;100585;1349;72539;-82
2021/12/31 13:41:21;;;;;;;;;;;;;;;20.81;36.17;101317.34;101386;1349;75668;-83
2021/12/31 13:43:55;;;;;;;;;;;;;;;20.81;36.41;101303.75;100757;1354;61181;-85
2021/12/31 13:46:50;;;;;;;;;;;;;;;20.81;36.50;101295.33;100687;1356;61347;-83
2021/12/31 13:49:37;;;;;;;;;;;;;;;20.82;36.23;101292.95;100693;1351;73807;-83
2021/12/31 13:52:37;;;;;;;;;;;;;;;20.83;36.31;101285.05;100155;1360;75581;-83
2021/12/31 13:55:29;;;;;;;;;;;;;;;20.83;36.39;101288.06;99920;1363;61326;-82
2021/12/31 13:58:16;;;;;;;;;;;;;;;20.83;36.22;101292.20;99994;1364;61396;-82
2021/12/31 14:00:43;;;;;;;;;;;;;;;20.83;36.23;101298.64;99962;1365;73702;-82
2021/12/31 14:03:49;;;;;;;;;;;;;;;20.83;36.49;101298.42;99958;1365;75176;-82
2021/12/31 14:06:20;;;;;;;;;;;;;;;20.84;36.24;101296.43;99793;1360;61353;-81
2021/12/31 14:09:06;;;;;;;;;;;;;;;20.84;36.36;101297.34;99989;1360;61229;-82
2021/12/31 14:11:34;;;;;;;;;;;;;;;20.84;36.21;101296.23;99834;1366;73126;-82
2021/12/31 14:14:44;;;;;;;;;;;;;;;20.84;36.24;101287.61;99913;1366;75882;-83
2021/12/31 14:17:19;;;;;;;;;;;;;;;20.85;36.36;101281.89;99930;1365;61299;-83
2021/12/31 14:20:20;;;;;;;;;;;;;;;;;;;;;
2021/12/31 14:22:51;;;;;;;;;;;;;;;20.85;36.35;101282.39;99649;1368;73845;-83
2021/12/31 14:25:43;;;;;;;;;;;;;;;20.85;36.49;101284.54;99531;1368;72389;-82
2021/12/31 14:28:52;;;;;;;;;;;;;;;;;;;;;
2021/12/31 14:31:43;;;;;;;;;;;;;;;20.86;36.34;101275.40;100290;1357;61188;-83
2021/12/31 14:34:16;;;;;;;;;;;;;;;20.86;36.38;101280.75;100307;1353;71875;-82
2021/12/31 14:37:20;;;;;;;;;;;;;;;20.86;36.35;101282.70;100334;1356;75671;-82
2021/12/31 14:39:51;;;;;;;;;;;;;;;20.86;36.45;101286.79;100286;1352;61133;-82
2021/12/31 14:43:01;;;;;;;;;;;;;;;20.86;36.38;101289.66;100254;1351;61340;-82
2021/12/31 14:45:35;;;;;;;;;;;;;;;20.86;36.48;101282.48;100277;1352;73183;-82
2021/12/31 14:48:08;;;;;;;;;;;;;;;20.87;36.46;101278.55;100210;1356;75600;-81
2021/12/31 14:50:45;;;;;;;;;;;;;;;20.86;36.46;101283.61;100362;1352;61148;-82
2021/12/31 14:53:11;;;;;;;;;;;;;;;20.86;36.32;101286.45;100375;1351;61335;-82
2021/12/31 14:55:57;;;;;;;;;;;;;;;20.86;36.46;101286.45;100323;1357;61236;-82